createdAt,value
2023-03-06T00:01:08.517Z,4.40
2023-03-06T00:03:57.643Z,4.40
2023-03-06T00:06:44.444Z,4.40
2023-03-06T00:09:30.977Z,4.40
2023-03-06T00:12:17.145Z,4.40
2023-03-06T00:15:05.843Z,4.50
2023-03-06T00:17:52.837Z,4.40
2023-03-06T00:20:40.893Z,4.60
2023-03-06T00:23:27.868Z,4.50
2023-03-06T00:26:14.427Z,4.50
2023-03-06T00:29:01.151Z,4.50
2023-03-06T00:31:49.428Z,4.50
2023-03-06T00:34:35.921Z,4.50
2023-03-06T00:37:24.242Z,4.50
2023-03-06T00:40:15.349Z,4.50
2023-03-06T00:43:01.763Z,4.50
2023-03-06T00:45:48.157Z,4.50
2023-03-06T00:48:35.874Z,4.60
2023-03-06T00:51:22.688Z,4.50
2023-03-06T00:54:09.352Z,4.50
2023-03-06T00:56:55.914Z,4.50
2023-03-06T00:59:42.486Z,4.50
2023-03-06T01:02:29.290Z,4.50
2023-03-06T01:05:17.624Z,4.50
2023-03-06T01:08:04.560Z,4.50
2023-03-06T01:10:51.255Z,4.40
2023-03-06T01:13:37.869Z,4.50
2023-03-06T01:16:24.358Z,4.50
2023-03-06T01:19:10.838Z,4.50
2023-03-06T01:21:59.067Z,4.50
2023-03-06T01:24:45.926Z,4.30
2023-03-06T01:27:32.334Z,4.30
2023-03-06T01:30:19.000Z,4.20
2023-03-06T01:33:05.644Z,4.20
2023-03-06T01:35:52.037Z,4.20
2023-03-06T01:38:40.110Z,4.20
2023-03-06T01:41:26.398Z,4.20
2023-03-06T01:44:13.652Z,4.20
2023-03-06T01:47:02.367Z,4.10
2023-03-06T01:49:48.837Z,4.20
2023-03-06T01:52:39.323Z,4.20
2023-03-06T01:55:32.191Z,4.10
2023-03-06T01:58:20.443Z,4.20
2023-03-06T02:01:06.977Z,4.20
2023-03-06T02:03:53.846Z,4.10
2023-03-06T02:06:43.136Z,4.20
2023-03-06T02:09:30.964Z,4.10
2023-03-06T02:12:20.609Z,4.00
2023-03-06T02:15:08.013Z,4.00
2023-03-06T02:17:54.565Z,4.00
2023-03-06T02:20:46.377Z,4.10
2023-03-06T02:23:37.662Z,4.00
2023-03-06T02:26:27.913Z,4.10
2023-03-06T02:29:19.130Z,3.90
2023-03-06T02:32:06.269Z,3.80
2023-03-06T02:34:58.117Z,3.90
2023-03-06T02:37:46.264Z,3.90
2023-03-06T02:40:33.361Z,3.80
2023-03-06T02:43:24.225Z,3.80
2023-03-06T02:46:11.168Z,3.80
2023-03-06T02:48:57.718Z,3.80
2023-03-06T02:51:44.540Z,3.90
2023-03-06T02:54:31.385Z,3.80
2023-03-06T02:57:18.238Z,3.80
2023-03-06T03:00:08.646Z,3.70
2023-03-06T03:02:55.289Z,3.70
2023-03-06T03:05:42.208Z,3.70
2023-03-06T03:08:29.081Z,3.70
2023-03-06T03:11:15.632Z,3.80
2023-03-06T03:14:01.956Z,3.70
2023-03-06T03:16:49.758Z,3.80
2023-03-06T03:19:36.798Z,3.80
2023-03-06T03:22:23.248Z,3.80
2023-03-06T03:25:10.467Z,3.80
2023-03-06T03:27:56.896Z,3.80
2023-03-06T03:30:43.706Z,3.80
2023-03-06T03:33:31.461Z,3.80
2023-03-06T03:36:18.229Z,3.70
2023-03-06T03:39:05.353Z,3.70
2023-03-06T03:41:52.036Z,3.70
2023-03-06T03:44:38.340Z,3.60
2023-03-06T03:47:24.712Z,3.60
2023-03-06T03:50:13.920Z,3.60
2023-03-06T03:53:00.827Z,3.60
2023-03-06T03:55:48.972Z,3.50
2023-03-06T03:58:35.824Z,3.50
2023-03-06T04:01:22.517Z,3.50
2023-03-06T04:04:08.924Z,3.60
2023-03-06T04:06:56.711Z,3.60
2023-03-06T04:09:43.548Z,3.50
2023-03-06T04:12:29.985Z,3.40
2023-03-06T04:15:16.351Z,3.40
2023-03-06T04:18:02.872Z,3.30
2023-03-06T04:20:50.458Z,3.40
2023-03-06T04:23:40.788Z,3.30
2023-03-06T04:26:27.292Z,3.30
2023-03-06T04:29:13.967Z,3.30
2023-03-06T04:32:00.565Z,3.40
2023-03-06T04:34:47.403Z,3.50
2023-03-06T04:37:33.768Z,3.50
2023-03-06T04:40:24.194Z,3.40
2023-03-06T04:43:11.135Z,3.40
2023-03-06T04:45:59.318Z,3.40
2023-03-06T04:48:45.683Z,3.40
2023-03-06T04:51:32.456Z,3.30
2023-03-06T04:54:19.147Z,3.30
2023-03-06T04:57:07.524Z,3.10
2023-03-06T04:59:53.843Z,3.20
2023-03-06T05:02:40.438Z,3.10
2023-03-06T05:05:27.532Z,2.90
2023-03-06T05:08:16.172Z,2.90
2023-03-06T05:11:03.481Z,2.90
2023-03-06T05:13:51.594Z,2.90
2023-03-06T05:16:38.004Z,3.00
2023-03-06T05:19:24.767Z,3.00
2023-03-06T05:22:11.486Z,2.90
2023-03-06T05:24:57.976Z,2.90
2023-03-06T05:27:44.496Z,2.90
2023-03-06T05:30:32.791Z,3.00
2023-03-06T05:33:19.341Z,3.20
2023-03-06T05:36:08.255Z,3.20
2023-03-06T05:38:54.799Z,3.30
2023-03-06T05:41:41.310Z,3.40
2023-03-06T05:44:32.151Z,3.30
2023-03-06T05:47:20.036Z,3.40
2023-03-06T05:50:08.244Z,3.40
2023-03-06T05:52:54.620Z,3.50
2023-03-06T05:55:40.893Z,3.50
2023-03-06T05:58:27.518Z,3.40
2023-03-06T06:01:16.395Z,3.50
2023-03-06T06:04:04.519Z,3.60
2023-03-06T06:06:56.002Z,3.60
2023-03-06T06:09:43.405Z,3.60
2023-03-06T06:12:30.011Z,3.60
2023-03-06T06:15:18.506Z,3.60
2023-03-06T06:18:05.014Z,3.70
2023-03-06T06:20:55.571Z,3.80
2023-03-06T06:23:42.865Z,3.80
2023-03-06T06:26:29.210Z,3.90
2023-03-06T06:29:15.598Z,3.90
2023-03-06T06:32:02.585Z,4.00
2023-03-06T06:34:48.937Z,4.00
2023-03-06T06:37:36.929Z,4.00
2023-03-06T06:40:24.379Z,4.00
2023-03-06T06:43:11.182Z,4.10
2023-03-06T06:46:19.573Z,4.10
2023-03-06T06:49:06.008Z,4.10
2023-03-06T06:51:52.971Z,4.10
2023-03-06T06:54:41.081Z,4.00
2023-03-06T06:57:27.425Z,4.00
2023-03-06T07:00:15.959Z,4.00
2023-03-06T07:03:02.733Z,4.10
2023-03-06T07:05:56.019Z,4.00
2023-03-06T07:08:42.348Z,4.10
2023-03-06T07:11:30.211Z,4.10
2023-03-06T07:14:16.673Z,4.10
2023-03-06T07:17:03.489Z,4.10
2023-03-06T07:19:50.058Z,4.10
2023-03-06T07:22:50.462Z,4.00
2023-03-06T07:25:38.528Z,4.10
2023-03-06T07:28:26.601Z,4.20
2023-03-06T07:31:13.258Z,4.30
2023-03-06T07:33:59.537Z,4.20
2023-03-06T07:36:45.969Z,4.20
2023-03-06T07:39:32.417Z,4.20
2023-03-06T07:42:18.860Z,4.20
2023-03-06T07:45:08.702Z,4.30
2023-03-06T07:47:55.765Z,4.30
2023-03-06T07:50:43.330Z,4.20
2023-03-06T07:53:30.693Z,4.20
2023-03-06T07:56:17.961Z,4.20
2023-03-06T07:59:04.786Z,4.20
2023-03-06T08:01:54.764Z,4.20
2023-03-06T08:04:40.968Z,4.30
2023-03-06T08:07:27.370Z,4.30
2023-03-06T08:10:17.479Z,4.30
2023-03-06T08:13:04.513Z,4.50
2023-03-06T08:15:51.200Z,4.50
2023-03-06T08:18:40.475Z,4.50
2023-03-06T08:21:29.626Z,4.50
2023-03-06T08:24:16.732Z,4.60
2023-03-06T08:27:03.041Z,4.60
2023-03-06T08:29:49.450Z,4.60
2023-03-06T08:32:36.705Z,4.60
2023-03-06T08:35:24.759Z,4.60
2023-03-06T08:38:11.070Z,4.70
2023-03-06T08:40:57.911Z,4.80
2023-03-06T08:43:44.589Z,4.80
2023-03-06T08:46:31.960Z,4.90
2023-03-06T08:49:18.330Z,5.00
2023-03-06T08:52:07.644Z,5.10
2023-03-06T08:54:54.119Z,5.10
2023-03-06T08:57:40.580Z,5.10
2023-03-06T09:00:27.125Z,5.20
2023-03-06T09:03:13.677Z,5.20
2023-03-06T09:06:00.972Z,5.30
2023-03-06T09:08:48.883Z,5.30
2023-03-06T09:11:35.826Z,5.40
2023-03-06T09:14:22.610Z,5.50
2023-03-06T09:17:09.103Z,5.50
2023-03-06T09:19:55.504Z,5.60
2023-03-06T09:22:43.534Z,5.60
2023-03-06T09:25:31.700Z,5.70
2023-03-06T09:28:18.597Z,5.80
2023-03-06T09:31:09.262Z,6.00
2023-03-06T09:33:55.532Z,6.00
2023-03-06T09:36:55.514Z,6.20
2023-03-06T09:39:43.595Z,6.20
2023-03-06T09:42:35.257Z,6.30
2023-03-06T09:45:22.762Z,6.30
2023-03-06T09:48:15.970Z,6.30
2023-03-06T09:51:06.171Z,6.30
2023-03-06T09:54:00.181Z,6.30
2023-03-06T09:56:49.876Z,6.30
2023-03-06T09:59:38.057Z,6.20
2023-03-06T10:02:29.859Z,6.30
2023-03-06T10:05:21.321Z,6.30
2023-03-06T10:08:20.656Z,6.20
2023-03-06T10:11:10.518Z,6.10
2023-03-06T10:14:12.572Z,5.90
2023-03-06T10:17:01.579Z,5.80
2023-03-06T10:19:49.321Z,5.60
2023-03-06T10:22:44.723Z,5.60
2023-03-06T10:25:38.652Z,5.60
2023-03-06T10:28:30.921Z,5.70
2023-03-06T10:31:23.628Z,5.80
2023-03-06T10:34:21.869Z,5.90
2023-03-06T10:37:18.610Z,5.80
2023-03-06T10:40:16.291Z,5.80
2023-03-06T10:43:11.386Z,5.80
2023-03-06T10:45:58.942Z,5.90
2023-03-06T10:48:58.780Z,5.90
2023-03-06T10:51:57.402Z,6.00
2023-03-06T10:54:48.134Z,6.20
2023-03-06T10:57:34.909Z,6.30
2023-03-06T11:00:31.441Z,6.50
2023-03-06T11:03:21.299Z,6.70
2023-03-06T11:06:12.882Z,6.90
2023-03-06T11:09:16.825Z,7.10
2023-03-06T11:12:26.692Z,7.20
2023-03-06T11:15:22.451Z,7.30
2023-03-06T11:18:28.545Z,7.50
2023-03-06T11:21:33.879Z,7.60
2023-03-06T11:24:21.932Z,7.60
2023-03-06T11:27:22.634Z,7.60
2023-03-06T11:30:18.994Z,7.70
2023-03-06T11:33:18.141Z,7.80
2023-03-06T11:36:12.484Z,7.60
2023-03-06T11:38:59.189Z,7.30
2023-03-06T11:41:53.670Z,7.10
2023-03-06T11:44:50.495Z,6.90
2023-03-06T11:47:42.223Z,6.90
2023-03-06T11:50:34.429Z,6.90
2023-03-06T11:53:24.181Z,7.10
2023-03-06T11:56:24.404Z,7.30
2023-03-06T11:59:33.298Z,7.60
2023-03-06T12:02:30.271Z,7.70
2023-03-06T12:05:33.515Z,7.70
2023-03-06T12:08:40.786Z,7.60
2023-03-06T12:11:35.964Z,7.40
2023-03-06T12:14:36.337Z,7.40
2023-03-06T12:17:34.686Z,7.20
2023-03-06T12:20:35.522Z,7.40
2023-03-06T12:23:37.435Z,7.40
2023-03-06T12:26:45.075Z,7.40
2023-03-06T12:30:03.708Z,7.60
2023-03-06T12:32:53.747Z,7.70
2023-03-06T12:36:00.842Z,7.70
2023-03-06T12:39:09.884Z,7.80
2023-03-06T12:42:11.491Z,7.80
2023-03-06T12:45:32.830Z,7.90
2023-03-06T12:48:24.112Z,7.80
2023-03-06T12:51:13.312Z,7.70
2023-03-06T12:54:03.024Z,7.70
2023-03-06T12:56:50.396Z,7.70
2023-03-06T12:59:44.216Z,7.60
2023-03-06T13:02:54.652Z,7.50
2023-03-06T13:06:04.471Z,7.30
2023-03-06T13:09:08.009Z,7.30
2023-03-06T13:12:22.341Z,7.50
2023-03-06T13:15:34.737Z,7.50
2023-03-06T13:18:57.974Z,7.50
2023-03-06T13:22:01.728Z,7.50
2023-03-06T13:24:49.455Z,7.60
2023-03-06T13:27:47.570Z,7.60
2023-03-06T13:30:47.630Z,7.60
2023-03-06T13:33:58.180Z,7.60
2023-03-06T13:36:44.792Z,7.70
2023-03-06T13:40:10.789Z,7.50
2023-03-06T13:43:25.086Z,7.60
2023-03-06T13:46:25.807Z,7.70
2023-03-06T13:49:22.396Z,7.80
2023-03-06T13:52:19.401Z,7.80
2023-03-06T13:55:21.733Z,7.90
2023-03-06T13:58:24.650Z,8.00
2023-03-06T14:01:41.135Z,8.10
2023-03-06T14:04:38.903Z,8.10
2023-03-06T14:07:29.067Z,8.00
2023-03-06T14:10:25.643Z,8.00
2023-03-06T14:13:19.589Z,8.00
2023-03-06T14:16:12.108Z,7.80
2023-03-06T14:18:59.862Z,7.70
2023-03-06T14:21:50.071Z,7.70
2023-03-06T14:24:40.420Z,7.50
2023-03-06T14:27:47.972Z,7.50
2023-03-06T14:30:36.777Z,7.40
2023-03-06T14:33:31.858Z,7.30
2023-03-06T14:36:21.049Z,7.30
2023-03-06T14:39:13.676Z,7.20
2023-03-06T14:42:07.748Z,7.10
2023-03-06T14:45:08.162Z,6.90
2023-03-06T14:47:54.611Z,6.70
2023-03-06T14:50:42.010Z,6.50
2023-03-06T14:53:30.413Z,6.60
2023-03-06T14:56:19.896Z,6.60
2023-03-06T14:59:08.990Z,6.70
2023-03-06T15:02:02.233Z,6.80
2023-03-06T15:04:51.786Z,6.90
2023-03-06T15:07:39.772Z,6.90
2023-03-06T15:10:29.530Z,6.90
2023-03-06T15:13:22.730Z,6.90
2023-03-06T15:16:23.427Z,6.90
2023-03-06T15:19:19.676Z,7.00
2023-03-06T15:22:06.265Z,6.80
2023-03-06T15:24:53.000Z,6.70
2023-03-06T15:27:41.117Z,6.70
2023-03-06T15:30:30.984Z,6.70
2023-03-06T15:33:25.638Z,6.70
2023-03-06T15:36:27.577Z,6.70
2023-03-06T15:39:46.435Z,6.70
2023-03-06T15:42:35.917Z,6.70
2023-03-06T15:45:24.499Z,6.70
2023-03-06T15:48:17.972Z,6.70
2023-03-06T15:51:04.959Z,6.60
2023-03-06T15:53:59.806Z,6.30
2023-03-06T15:56:52.517Z,5.90
2023-03-06T15:59:44.612Z,5.40
2023-03-06T16:02:31.172Z,5.10
2023-03-06T16:05:18.562Z,5.00
2023-03-06T16:08:05.683Z,5.00
2023-03-06T16:10:53.602Z,4.80
2023-03-06T16:13:40.158Z,4.60
2023-03-06T16:16:34.095Z,4.50
2023-03-06T16:19:26.855Z,4.10
2023-03-06T16:22:14.506Z,4.10
2023-03-06T16:25:01.011Z,4.20
2023-03-06T16:27:55.364Z,4.20
2023-03-06T16:30:42.875Z,4.20
2023-03-06T16:33:29.397Z,4.40
2023-03-06T16:36:20.169Z,4.40
2023-03-06T16:39:15.372Z,4.50
2023-03-06T16:42:01.993Z,4.50
2023-03-06T16:44:49.894Z,4.50
2023-03-06T16:47:36.397Z,4.50
2023-03-06T16:50:25.842Z,4.60
2023-03-06T16:53:12.337Z,4.60
2023-03-06T16:55:58.814Z,4.60
2023-03-06T16:58:45.269Z,4.50
2023-03-06T17:01:35.020Z,4.60
2023-03-06T17:04:21.651Z,4.40
2023-03-06T17:07:08.170Z,4.30
2023-03-06T17:09:54.497Z,4.30
2023-03-06T17:12:41.043Z,4.20
2023-03-06T17:15:27.454Z,4.30
2023-03-06T17:18:15.193Z,4.30
2023-03-06T17:21:02.017Z,4.30
2023-03-06T17:23:48.591Z,4.40
2023-03-06T17:26:38.765Z,4.40
2023-03-06T17:29:26.499Z,4.40
2023-03-06T17:32:13.819Z,4.50
2023-03-06T17:35:01.757Z,4.40
2023-03-06T17:37:48.280Z,4.40
2023-03-06T17:40:37.971Z,4.50
2023-03-06T17:43:24.651Z,4.40
2023-03-06T17:46:12.770Z,4.40
2023-03-06T17:48:59.364Z,4.60
2023-03-06T17:51:47.162Z,4.60
2023-03-06T17:54:35.035Z,4.60
2023-03-06T17:57:21.372Z,4.60
2023-03-06T18:00:09.423Z,4.50
2023-03-06T18:02:55.833Z,4.40
2023-03-06T18:05:42.369Z,4.30
2023-03-06T18:08:30.632Z,4.30
2023-03-06T18:11:17.831Z,4.40
2023-03-06T18:14:05.536Z,4.40
2023-03-06T18:16:52.352Z,4.50
2023-03-06T18:19:38.869Z,4.50
2023-03-06T18:22:25.213Z,4.60
2023-03-06T18:25:12.976Z,4.60
2023-03-06T18:27:59.874Z,4.60
2023-03-06T18:30:46.639Z,4.60
2023-03-06T18:33:33.042Z,4.60
2023-03-06T18:36:19.932Z,4.70
2023-03-06T18:39:09.554Z,4.70
2023-03-06T18:41:57.648Z,4.70
2023-03-06T18:44:47.618Z,4.70
2023-03-06T18:47:34.333Z,4.70
2023-03-06T18:50:21.043Z,4.70
2023-03-06T18:53:07.792Z,4.70
2023-03-06T18:55:55.399Z,4.70
2023-03-06T18:58:44.838Z,4.70
2023-03-06T19:01:32.568Z,4.80
2023-03-06T19:04:19.043Z,4.80
2023-03-06T19:07:06.054Z,4.90
2023-03-06T19:09:52.395Z,4.70
2023-03-06T19:12:38.763Z,4.80
2023-03-06T19:15:26.572Z,4.70
2023-03-06T19:18:15.536Z,4.70
2023-03-06T19:21:09.375Z,4.70
2023-03-06T19:23:56.647Z,4.70
2023-03-06T19:26:44.651Z,4.70
2023-03-06T19:29:32.369Z,4.70
2023-03-06T19:32:20.085Z,4.70
2023-03-06T19:35:07.454Z,4.70
2023-03-06T19:37:53.999Z,4.70
2023-03-06T19:40:40.374Z,4.70
2023-03-06T19:43:27.025Z,4.70
2023-03-06T19:46:14.839Z,4.60
2023-03-06T19:49:09.585Z,4.50
2023-03-06T19:51:56.562Z,4.40
2023-03-06T19:54:43.241Z,4.40
2023-03-06T19:57:29.893Z,4.40
2023-03-06T20:00:16.642Z,4.20
2023-03-06T20:03:02.973Z,4.20
2023-03-06T20:05:50.716Z,4.00
2023-03-06T20:08:37.319Z,4.00
2023-03-06T20:11:25.751Z,4.00
2023-03-06T20:14:13.803Z,4.00
2023-03-06T20:17:00.483Z,4.10
2023-03-06T20:19:47.371Z,4.10
2023-03-06T20:22:35.086Z,4.10
2023-03-06T20:25:21.507Z,4.10
2023-03-06T20:28:07.922Z,4.10
2023-03-06T20:30:54.283Z,4.10
2023-03-06T20:33:41.177Z,4.00
2023-03-06T20:36:29.478Z,4.00
2023-03-06T20:39:18.979Z,3.90
2023-03-06T20:42:06.116Z,3.80
2023-03-06T20:44:52.533Z,3.70
2023-03-06T20:47:38.960Z,3.70
2023-03-06T20:50:26.187Z,3.60
2023-03-06T20:53:12.524Z,3.60
2023-03-06T20:56:00.174Z,3.50
2023-03-06T20:58:46.655Z,3.40
2023-03-06T21:01:34.982Z,3.40
2023-03-06T21:04:21.764Z,3.30
2023-03-06T21:07:08.202Z,3.20
2023-03-06T21:09:54.924Z,3.10
2023-03-06T21:12:43.012Z,3.10
2023-03-06T21:15:31.514Z,3.10
2023-03-06T21:18:18.116Z,3.00
2023-03-06T21:21:06.600Z,3.00
2023-03-06T21:23:53.250Z,2.90
2023-03-06T21:26:39.841Z,2.90
2023-03-06T21:29:27.809Z,2.80
2023-03-06T21:32:14.551Z,2.80
2023-03-06T21:35:00.797Z,2.80
2023-03-06T21:37:47.673Z,2.70
2023-03-06T21:40:34.767Z,2.70
2023-03-06T21:43:21.348Z,2.70
2023-03-06T21:46:09.801Z,2.70
2023-03-06T21:48:57.373Z,2.70
2023-03-06T21:51:44.180Z,2.60
2023-03-06T21:54:30.670Z,2.60
2023-03-06T21:57:17.169Z,2.60
2023-03-06T22:00:04.788Z,2.70
2023-03-06T22:02:53.180Z,2.60
2023-03-06T22:05:39.488Z,2.60
2023-03-06T22:08:26.592Z,2.50
2023-03-06T22:11:15.333Z,2.50
2023-03-06T22:14:01.857Z,2.50
2023-03-06T22:16:48.150Z,2.50
2023-03-06T22:19:35.764Z,2.50
2023-03-06T22:22:22.002Z,2.50
2023-03-06T22:25:09.534Z,2.50
2023-03-06T22:27:56.536Z,2.50
2023-03-06T22:30:42.857Z,2.50
2023-03-06T22:33:29.029Z,2.40
2023-03-06T22:36:19.486Z,2.50
2023-03-06T22:39:06.168Z,2.40
2023-03-06T22:41:52.693Z,2.30
2023-03-06T22:44:39.413Z,2.30
2023-03-06T22:47:26.038Z,2.30
2023-03-06T22:50:13.813Z,2.20
2023-03-06T22:53:01.804Z,2.20
2023-03-06T22:55:48.279Z,2.30
2023-03-06T22:58:37.253Z,2.30
2023-03-06T23:01:25.941Z,2.40
2023-03-06T23:04:12.508Z,2.30
2023-03-06T23:06:58.772Z,2.40
2023-03-06T23:09:46.350Z,2.40
2023-03-06T23:12:33.081Z,2.40
2023-03-06T23:15:19.596Z,2.30
2023-03-06T23:18:06.440Z,2.30
2023-03-06T23:20:53.210Z,2.30
2023-03-06T23:23:40.615Z,2.40
2023-03-06T23:26:30.425Z,2.40
2023-03-06T23:29:17.284Z,2.60
2023-03-06T23:32:03.757Z,2.60
2023-03-06T23:34:50.304Z,2.50
2023-03-06T23:37:36.890Z,2.50
2023-03-06T23:40:23.574Z,2.50
2023-03-06T23:43:11.280Z,2.60
2023-03-06T23:45:58.193Z,2.50
2023-03-06T23:48:44.977Z,2.60
2023-03-06T23:51:31.738Z,2.70
2023-03-06T23:54:18.759Z,2.70
2023-03-06T23:57:05.340Z,2.70
2023-03-06T23:59:53.378Z,2.70
